sensor_id;sensor_type;location;lat;lon;timestamp;temperature;humidity
62154;DHT22;48140;45.486;9.226;2023-04-05T00:00:41;8.20;47.30
62154;DHT22;48140;45.486;9.226;2023-04-05T00:03:07;8.20;48.00
62154;DHT22;48140;45.486;9.226;2023-04-05T00:05:35;8.20;48.00
62154;DHT22;48140;45.486;9.226;2023-04-05T00:08:02;8.10;48.30
62154;DHT22;48140;45.486;9.226;2023-04-05T00:10:31;8.10;48.50
62154;DHT22;48140;45.486;9.226;2023-04-05T00:12:57;8.10;48.70
62154;DHT22;48140;45.486;9.226;2023-04-05T00:15:23;8.10;48.30
62154;DHT22;48140;45.486;9.226;2023-04-05T00:17:48;8.10;48.60
62154;DHT22;48140;45.486;9.226;2023-04-05T00:20:15;8.10;49.00
62154;DHT22;48140;45.486;9.226;2023-04-05T00:22:41;8.10;48.40
62154;DHT22;48140;45.486;9.226;2023-04-05T00:25:09;8.00;47.90
62154;DHT22;48140;45.486;9.226;2023-04-05T00:27:35;8.00;48.10
62154;DHT22;48140;45.486;9.226;2023-04-05T00:30:01;8.00;48.30
62154;DHT22;48140;45.486;9.226;2023-04-05T00:32:26;8.00;47.80
62154;DHT22;48140;45.486;9.226;2023-04-05T00:34:52;8.00;47.80
62154;DHT22;48140;45.486;9.226;2023-04-05T00:37:17;8.00;47.80
62154;DHT22;48140;45.486;9.226;2023-04-05T00:39:43;7.90;48.00
62154;DHT22;48140;45.486;9.226;2023-04-05T00:42:08;8.00;48.50
62154;DHT22;48140;45.486;9.226;2023-04-05T00:44:35;8.00;48.20
62154;DHT22;48140;45.486;9.226;2023-04-05T00:47:01;7.90;47.90
62154;DHT22;48140;45.486;9.226;2023-04-05T00:49:35;7.90;48.10
62154;DHT22;48140;45.486;9.226;2023-04-05T00:52:01;7.90;47.90
62154;DHT22;48140;45.486;9.226;2023-04-05T00:54:28;7.80;47.70
62154;DHT22;48140;45.486;9.226;2023-04-05T00:56:57;7.80;47.70
62154;DHT22;48140;45.486;9.226;2023-04-05T00:59:28;7.80;47.50
62154;DHT22;48140;45.486;9.226;2023-04-05T01:02:05;7.80;47.90
62154;DHT22;48140;45.486;9.226;2023-04-05T01:04:32;7.80;48.00
62154;DHT22;48140;45.486;9.226;2023-04-05T01:07:14;7.80;48.00
62154;DHT22;48140;45.486;9.226;2023-04-05T01:09:51;7.70;47.70
62154;DHT22;48140;45.486;9.226;2023-04-05T01:12:19;7.70;47.80
62154;DHT22;48140;45.486;9.226;2023-04-05T01:14:53;7.70;47.90
62154;DHT22;48140;45.486;9.226;2023-04-05T01:17:22;7.70;47.90
62154;DHT22;48140;45.486;9.226;2023-04-05T01:19:58;7.80;48.30
62154;DHT22;48140;45.486;9.226;2023-04-05T01:26:03;7.70;49.20
62154;DHT22;48140;45.486;9.226;2023-04-05T01:28:48;7.70;48.90
62154;DHT22;48140;45.486;9.226;2023-04-05T01:31:45;7.80;48.30
62154;DHT22;48140;45.486;9.226;2023-04-05T01:34:25;7.70;49.30
62154;DHT22;48140;45.486;9.226;2023-04-05T01:37:05;7.80;48.00
62154;DHT22;48140;45.486;9.226;2023-04-05T01:39:33;7.80;48.00
62154;DHT22;48140;45.486;9.226;2023-04-05T01:42:00;7.80;47.60
62154;DHT22;48140;45.486;9.226;2023-04-05T01:44:27;7.80;48.20
62154;DHT22;48140;45.486;9.226;2023-04-05T01:46:54;7.80;47.70
62154;DHT22;48140;45.486;9.226;2023-04-05T01:49:19;7.90;47.30
62154;DHT22;48140;45.486;9.226;2023-04-05T01:51:45;7.90;47.10
62154;DHT22;48140;45.486;9.226;2023-04-05T01:54:11;7.90;46.70
62154;DHT22;48140;45.486;9.226;2023-04-05T01:56:36;8.00;46.50
62154;DHT22;48140;45.486;9.226;2023-04-05T01:59:02;8.00;46.70
62154;DHT22;48140;45.486;9.226;2023-04-05T02:01:28;7.90;46.30
62154;DHT22;48140;45.486;9.226;2023-04-05T02:03:53;8.00;45.90
62154;DHT22;48140;45.486;9.226;2023-04-05T02:06:19;8.00;45.60
62154;DHT22;48140;45.486;9.226;2023-04-05T02:08:44;8.00;45.60
62154;DHT22;48140;45.486;9.226;2023-04-05T02:11:10;8.00;45.80
62154;DHT22;48140;45.486;9.226;2023-04-05T02:13:36;8.00;45.90
62154;DHT22;48140;45.486;9.226;2023-04-05T02:16:01;8.10;45.60
62154;DHT22;48140;45.486;9.226;2023-04-05T02:18:27;8.10;45.60
62154;DHT22;48140;45.486;9.226;2023-04-05T02:21:06;8.10;45.60
62154;DHT22;48140;45.486;9.226;2023-04-05T02:23:33;8.10;45.40
62154;DHT22;48140;45.486;9.226;2023-04-05T02:25:59;8.10;45.40
62154;DHT22;48140;45.486;9.226;2023-04-05T02:28:25;8.20;45.30
62154;DHT22;48140;45.486;9.226;2023-04-05T02:30:51;8.20;45.20
62154;DHT22;48140;45.486;9.226;2023-04-05T02:33:16;8.20;45.20
62154;DHT22;48140;45.486;9.226;2023-04-05T02:35:43;8.20;45.40
62154;DHT22;48140;45.486;9.226;2023-04-05T02:38:08;8.20;45.10
62154;DHT22;48140;45.486;9.226;2023-04-05T02:40:34;8.20;45.00
62154;DHT22;48140;45.486;9.226;2023-04-05T02:43:00;8.20;44.80
62154;DHT22;48140;45.486;9.226;2023-04-05T02:45:25;8.30;44.90
62154;DHT22;48140;45.486;9.226;2023-04-05T02:47:54;8.30;45.70
62154;DHT22;48140;45.486;9.226;2023-04-05T02:50:20;8.30;45.00
62154;DHT22;48140;45.486;9.226;2023-04-05T02:52:47;8.20;44.70
62154;DHT22;48140;45.486;9.226;2023-04-05T02:55:13;8.10;45.20
62154;DHT22;48140;45.486;9.226;2023-04-05T02:57:39;8.10;45.40
62154;DHT22;48140;45.486;9.226;2023-04-05T03:00:05;8.10;45.70
62154;DHT22;48140;45.486;9.226;2023-04-05T03:02:32;8.10;46.00
62154;DHT22;48140;45.486;9.226;2023-04-05T03:04:58;8.00;46.10
62154;DHT22;48140;45.486;9.226;2023-04-05T03:07:26;8.00;47.10
62154;DHT22;48140;45.486;9.226;2023-04-05T03:09:52;8.00;46.90
62154;DHT22;48140;45.486;9.226;2023-04-05T03:12:18;8.00;47.00
62154;DHT22;48140;45.486;9.226;2023-04-05T03:14:44;8.00;47.60
62154;DHT22;48140;45.486;9.226;2023-04-05T03:17:11;8.10;47.00
62154;DHT22;48140;45.486;9.226;2023-04-05T03:19:37;8.00;46.90
62154;DHT22;48140;45.486;9.226;2023-04-05T03:22:03;8.00;47.00
62154;DHT22;48140;45.486;9.226;2023-04-05T03:24:29;8.10;47.30
62154;DHT22;48140;45.486;9.226;2023-04-05T03:26:55;8.10;47.30
62154;DHT22;48140;45.486;9.226;2023-04-05T03:29:20;8.00;46.90
62154;DHT22;48140;45.486;9.226;2023-04-05T03:31:46;8.10;47.20
62154;DHT22;48140;45.486;9.226;2023-04-05T03:34:12;8.00;47.60
62154;DHT22;48140;45.486;9.226;2023-04-05T03:36:37;8.10;47.00
62154;DHT22;48140;45.486;9.226;2023-04-05T03:39:11;8.00;47.30
62154;DHT22;48140;45.486;9.226;2023-04-05T03:41:40;8.00;47.40
62154;DHT22;48140;45.486;9.226;2023-04-05T03:44:07;8.00;47.50
62154;DHT22;48140;45.486;9.226;2023-04-05T03:46:33;8.00;47.50
62154;DHT22;48140;45.486;9.226;2023-04-05T03:48:59;8.00;47.80
62154;DHT22;48140;45.486;9.226;2023-04-05T03:51:25;8.00;48.10
62154;DHT22;48140;45.486;9.226;2023-04-05T03:53:51;7.90;47.30
62154;DHT22;48140;45.486;9.226;2023-04-05T03:56:17;7.90;48.00
62154;DHT22;48140;45.486;9.226;2023-04-05T03:58:43;7.90;47.60
62154;DHT22;48140;45.486;9.226;2023-04-05T04:01:10;7.90;47.50
62154;DHT22;48140;45.486;9.226;2023-04-05T04:03:36;7.90;46.80
62154;DHT22;48140;45.486;9.226;2023-04-05T04:06:05;7.90;46.40
62154;DHT22;48140;45.486;9.226;2023-04-05T04:08:32;7.80;46.30
62154;DHT22;48140;45.486;9.226;2023-04-05T04:10:58;7.90;46.60
62154;DHT22;48140;45.486;9.226;2023-04-05T04:13:23;7.80;47.00
62154;DHT22;48140;45.486;9.226;2023-04-05T04:15:49;7.80;47.10
62154;DHT22;48140;45.486;9.226;2023-04-05T04:18:15;7.70;46.50
62154;DHT22;48140;45.486;9.226;2023-04-05T04:20:41;7.70;46.50
62154;DHT22;48140;45.486;9.226;2023-04-05T04:23:07;7.70;45.80
62154;DHT22;48140;45.486;9.226;2023-04-05T04:25:37;7.70;45.90
62154;DHT22;48140;45.486;9.226;2023-04-05T04:28:04;7.70;46.20
62154;DHT22;48140;45.486;9.226;2023-04-05T04:30:34;7.70;46.00
62154;DHT22;48140;45.486;9.226;2023-04-05T04:33:01;7.80;45.80
62154;DHT22;48140;45.486;9.226;2023-04-05T04:35:31;7.70;45.50
62154;DHT22;48140;45.486;9.226;2023-04-05T04:38:03;7.70;44.80
62154;DHT22;48140;45.486;9.226;2023-04-05T04:40:37;7.70;44.70
62154;DHT22;48140;45.486;9.226;2023-04-05T04:43:08;7.60;44.50
62154;DHT22;48140;45.486;9.226;2023-04-05T04:45:47;7.60;44.70
62154;DHT22;48140;45.486;9.226;2023-04-05T04:48:16;7.60;44.50
62154;DHT22;48140;45.486;9.226;2023-04-05T04:50:43;7.60;44.20
62154;DHT22;48140;45.486;9.226;2023-04-05T04:53:10;7.60;45.10
62154;DHT22;48140;45.486;9.226;2023-04-05T04:55:38;7.60;44.30
62154;DHT22;48140;45.486;9.226;2023-04-05T04:58:07;7.60;44.70
62154;DHT22;48140;45.486;9.226;2023-04-05T05:00:40;7.60;44.70
62154;DHT22;48140;45.486;9.226;2023-04-05T05:03:09;7.60;44.50
62154;DHT22;48140;45.486;9.226;2023-04-05T05:05:47;7.60;45.50
62154;DHT22;48140;45.486;9.226;2023-04-05T05:08:13;7.60;44.70
62154;DHT22;48140;45.486;9.226;2023-04-05T05:10:38;7.70;44.20
62154;DHT22;48140;45.486;9.226;2023-04-05T05:13:04;7.60;44.20
62154;DHT22;48140;45.486;9.226;2023-04-05T05:15:30;7.60;44.10
62154;DHT22;48140;45.486;9.226;2023-04-05T05:17:56;7.60;43.70
62154;DHT22;48140;45.486;9.226;2023-04-05T05:20:23;7.70;43.80
62154;DHT22;48140;45.486;9.226;2023-04-05T05:22:49;7.70;44.70
62154;DHT22;48140;45.486;9.226;2023-04-05T05:25:15;7.70;43.80
62154;DHT22;48140;45.486;9.226;2023-04-05T05:27:41;7.80;44.00
62154;DHT22;48140;45.486;9.226;2023-04-05T05:30:07;7.80;44.40
62154;DHT22;48140;45.486;9.226;2023-04-05T05:32:33;7.80;44.60
62154;DHT22;48140;45.486;9.226;2023-04-05T05:34:59;7.80;45.00
62154;DHT22;48140;45.486;9.226;2023-04-05T05:37:31;7.80;44.60
62154;DHT22;48140;45.486;9.226;2023-04-05T05:39:58;7.90;44.70
62154;DHT22;48140;45.486;9.226;2023-04-05T05:42:23;7.90;44.50
62154;DHT22;48140;45.486;9.226;2023-04-05T05:44:50;8.00;44.60
62154;DHT22;48140;45.486;9.226;2023-04-05T05:47:15;8.00;44.90
62154;DHT22;48140;45.486;9.226;2023-04-05T05:49:41;8.00;45.10
62154;DHT22;48140;45.486;9.226;2023-04-05T05:52:07;8.10;45.20
62154;DHT22;48140;45.486;9.226;2023-04-05T05:54:32;8.20;44.80
62154;DHT22;48140;45.486;9.226;2023-04-05T05:56:58;8.20;44.70
62154;DHT22;48140;45.486;9.226;2023-04-05T05:59:23;8.30;44.50
62154;DHT22;48140;45.486;9.226;2023-04-05T06:01:49;8.30;44.60
62154;DHT22;48140;45.486;9.226;2023-04-05T06:04:16;8.40;44.80
62154;DHT22;48140;45.486;9.226;2023-04-05T06:06:42;8.60;44.20
62154;DHT22;48140;45.486;9.226;2023-04-05T06:09:09;8.70;43.60
62154;DHT22;48140;45.486;9.226;2023-04-05T06:11:35;8.90;43.60
62154;DHT22;48140;45.486;9.226;2023-04-05T06:14:01;9.00;42.90
62154;DHT22;48140;45.486;9.226;2023-04-05T06:16:26;9.10;42.50
62154;DHT22;48140;45.486;9.226;2023-04-05T06:18:52;9.10;42.60
62154;DHT22;48140;45.486;9.226;2023-04-05T06:21:20;9.20;42.90
62154;DHT22;48140;45.486;9.226;2023-04-05T06:23:46;9.10;43.00
62154;DHT22;48140;45.486;9.226;2023-04-05T06:26:20;9.00;42.90
62154;DHT22;48140;45.486;9.226;2023-04-05T06:28:47;9.00;42.70
62154;DHT22;48140;45.486;9.226;2023-04-05T06:31:14;9.00;43.40
62154;DHT22;48140;45.486;9.226;2023-04-05T06:33:43;9.00;43.60
62154;DHT22;48140;45.486;9.226;2023-04-05T06:36:09;9.00;43.30
62154;DHT22;48140;45.486;9.226;2023-04-05T06:38:35;9.10;43.20
62154;DHT22;48140;45.486;9.226;2023-04-05T06:41:01;9.00;44.40
62154;DHT22;48140;45.486;9.226;2023-04-05T06:43:27;9.10;43.40
62154;DHT22;48140;45.486;9.226;2023-04-05T06:45:55;9.10;43.60
62154;DHT22;48140;45.486;9.226;2023-04-05T06:48:21;9.10;43.50
62154;DHT22;48140;45.486;9.226;2023-04-05T06:50:55;9.20;43.60
62154;DHT22;48140;45.486;9.226;2023-04-05T06:53:20;9.20;43.40
62154;DHT22;48140;45.486;9.226;2023-04-05T06:55:49;9.10;43.30
62154;DHT22;48140;45.486;9.226;2023-04-05T06:58:15;9.10;43.50
62154;DHT22;48140;45.486;9.226;2023-04-05T07:00:41;9.20;42.90
62154;DHT22;48140;45.486;9.226;2023-04-05T07:03:06;9.40;42.90
62154;DHT22;48140;45.486;9.226;2023-04-05T07:05:32;9.50;43.70
62154;DHT22;48140;45.486;9.226;2023-04-05T07:07:57;9.80;42.50
62154;DHT22;48140;45.486;9.226;2023-04-05T07:10:23;10.00;40.90
62154;DHT22;48140;45.486;9.226;2023-04-05T07:12:50;10.00;40.80
62154;DHT22;48140;45.486;9.226;2023-04-05T07:15:15;10.20;39.90
62154;DHT22;48140;45.486;9.226;2023-04-05T07:17:41;10.20;39.50
62154;DHT22;48140;45.486;9.226;2023-04-05T07:20:07;10.30;39.40
62154;DHT22;48140;45.486;9.226;2023-04-05T07:22:33;10.30;39.00
62154;DHT22;48140;45.486;9.226;2023-04-05T07:24:59;10.40;39.80
62154;DHT22;48140;45.486;9.226;2023-04-05T07:27:25;10.60;39.20
62154;DHT22;48140;45.486;9.226;2023-04-05T07:29:51;10.60;39.00
62154;DHT22;48140;45.486;9.226;2023-04-05T07:32:17;10.80;38.60
62154;DHT22;48140;45.486;9.226;2023-04-05T07:34:42;11.10;38.00
62154;DHT22;48140;45.486;9.226;2023-04-05T07:37:08;11.10;37.70
62154;DHT22;48140;45.486;9.226;2023-04-05T07:39:33;11.20;38.00
62154;DHT22;48140;45.486;9.226;2023-04-05T07:41:59;11.20;37.60
62154;DHT22;48140;45.486;9.226;2023-04-05T07:44:24;11.10;37.60
62154;DHT22;48140;45.486;9.226;2023-04-05T07:46:50;11.00;38.10
62154;DHT22;48140;45.486;9.226;2023-04-05T07:49:16;11.00;38.30
62154;DHT22;48140;45.486;9.226;2023-04-05T07:51:41;11.10;38.40
62154;DHT22;48140;45.486;9.226;2023-04-05T07:54:07;11.00;38.20
62154;DHT22;48140;45.486;9.226;2023-04-05T07:56:34;11.00;38.20
62154;DHT22;48140;45.486;9.226;2023-04-05T07:59:00;11.00;37.80
62154;DHT22;48140;45.486;9.226;2023-04-05T08:01:26;11.10;38.10
62154;DHT22;48140;45.486;9.226;2023-04-05T08:03:53;11.10;38.00
62154;DHT22;48140;45.486;9.226;2023-04-05T08:06:21;11.10;38.70
62154;DHT22;48140;45.486;9.226;2023-04-05T08:08:48;11.10;38.60
62154;DHT22;48140;45.486;9.226;2023-04-05T08:11:13;11.10;38.50
62154;DHT22;48140;45.486;9.226;2023-04-05T08:13:39;11.00;39.00
62154;DHT22;48140;45.486;9.226;2023-04-05T08:16:10;10.60;39.20
62154;DHT22;48140;45.486;9.226;2023-04-05T08:18:36;10.60;40.40
62154;DHT22;48140;45.486;9.226;2023-04-05T08:21:01;10.70;40.80
62154;DHT22;48140;45.486;9.226;2023-04-05T08:23:27;10.90;39.70
62154;DHT22;48140;45.486;9.226;2023-04-05T08:25:53;11.00;39.70
62154;DHT22;48140;45.486;9.226;2023-04-05T08:28:18;11.20;39.70
62154;DHT22;48140;45.486;9.226;2023-04-05T08:30:44;11.20;39.30
62154;DHT22;48140;45.486;9.226;2023-04-05T08:33:11;11.20;39.50
62154;DHT22;48140;45.486;9.226;2023-04-05T08:35:37;11.10;39.50
62154;DHT22;48140;45.486;9.226;2023-04-05T08:38:05;11.20;39.20
62154;DHT22;48140;45.486;9.226;2023-04-05T08:40:45;11.40;38.20
62154;DHT22;48140;45.486;9.226;2023-04-05T08:43:39;11.20;38.80
62154;DHT22;48140;45.486;9.226;2023-04-05T08:46:08;11.40;39.30
62154;DHT22;48140;45.486;9.226;2023-04-05T08:48:37;11.50;39.10
62154;DHT22;48140;45.486;9.226;2023-04-05T08:51:05;11.50;40.20
62154;DHT22;48140;45.486;9.226;2023-04-05T08:53:33;11.20;38.20
62154;DHT22;48140;45.486;9.226;2023-04-05T08:55:59;11.40;39.10
62154;DHT22;48140;45.486;9.226;2023-04-05T08:58:26;11.70;38.50
62154;DHT22;48140;45.486;9.226;2023-04-05T09:00:54;11.60;38.30
62154;DHT22;48140;45.486;9.226;2023-04-05T09:03:22;11.70;37.70
62154;DHT22;48140;45.486;9.226;2023-04-05T09:05:51;11.80;37.70
62154;DHT22;48140;45.486;9.226;2023-04-05T09:08:17;12.20;37.00
62154;DHT22;48140;45.486;9.226;2023-04-05T09:10:43;12.30;36.30
62154;DHT22;48140;45.486;9.226;2023-04-05T09:13:09;12.50;35.90
62154;DHT22;48140;45.486;9.226;2023-04-05T09:15:39;12.50;35.60
62154;DHT22;48140;45.486;9.226;2023-04-05T09:18:05;12.60;35.60
62154;DHT22;48140;45.486;9.226;2023-04-05T09:20:31;12.80;35.30
62154;DHT22;48140;45.486;9.226;2023-04-05T09:22:56;12.70;35.30
62154;DHT22;48140;45.486;9.226;2023-04-05T09:27:58;13.20;34.30
62154;DHT22;48140;45.486;9.226;2023-04-05T09:30:25;13.40;34.50
62154;DHT22;48140;45.486;9.226;2023-04-05T09:32:53;13.20;34.10
62154;DHT22;48140;45.486;9.226;2023-04-05T09:35:24;13.40;33.40
62154;DHT22;48140;45.486;9.226;2023-04-05T09:37:51;13.30;33.80
62154;DHT22;48140;45.486;9.226;2023-04-05T09:40:20;13.30;33.70
62154;DHT22;48140;45.486;9.226;2023-04-05T09:42:46;13.30;33.80
62154;DHT22;48140;45.486;9.226;2023-04-05T09:45:13;13.50;33.70
62154;DHT22;48140;45.486;9.226;2023-04-05T09:47:39;12.80;34.40
62154;DHT22;48140;45.486;9.226;2023-04-05T09:52:41;13.10;34.00
62154;DHT22;48140;45.486;9.226;2023-04-05T09:55:08;13.30;33.50
62154;DHT22;48140;45.486;9.226;2023-04-05T09:57:38;13.40;33.50
62154;DHT22;48140;45.486;9.226;2023-04-05T10:00:06;13.40;33.90
62154;DHT22;48140;45.486;9.226;2023-04-05T10:02:36;12.90;34.50
62154;DHT22;48140;45.486;9.226;2023-04-05T10:05:07;13.60;34.60
62154;DHT22;48140;45.486;9.226;2023-04-05T10:07:36;14.10;32.80
62154;DHT22;48140;45.486;9.226;2023-04-05T10:10:02;14.30;32.00
62154;DHT22;48140;45.486;9.226;2023-04-05T10:12:28;14.00;31.50
62154;DHT22;48140;45.486;9.226;2023-04-05T10:14:56;13.90;33.40
62154;DHT22;48140;45.486;9.226;2023-04-05T10:17:26;14.30;32.70
62154;DHT22;48140;45.486;9.226;2023-04-05T10:20:02;14.30;32.20
62154;DHT22;48140;45.486;9.226;2023-04-05T10:28:14;15.00;31.20
62154;DHT22;48140;45.486;9.226;2023-04-05T10:30:46;15.20;29.80
62154;DHT22;48140;45.486;9.226;2023-04-05T10:33:19;15.10;30.20
62154;DHT22;48140;45.486;9.226;2023-04-05T10:35:55;15.40;29.90
62154;DHT22;48140;45.486;9.226;2023-04-05T10:38:25;15.80;29.40
62154;DHT22;48140;45.486;9.226;2023-04-05T10:41:11;15.80;29.50
62154;DHT22;48140;45.486;9.226;2023-04-05T10:43:38;16.40;28.70
62154;DHT22;48140;45.486;9.226;2023-04-05T10:46:06;16.40;28.30
62154;DHT22;48140;45.486;9.226;2023-04-05T10:51:17;15.60;28.40
62154;DHT22;48140;45.486;9.226;2023-04-05T10:53:45;15.70;28.70
62154;DHT22;48140;45.486;9.226;2023-04-05T10:56:11;15.60;29.00
62154;DHT22;48140;45.486;9.226;2023-04-05T10:58:37;15.80;29.80
62154;DHT22;48140;45.486;9.226;2023-04-05T11:01:07;15.90;29.10
62154;DHT22;48140;45.486;9.226;2023-04-05T11:03:49;16.00;28.70
62154;DHT22;48140;45.486;9.226;2023-04-05T11:08:57;16.20;28.40
62154;DHT22;48140;45.486;9.226;2023-04-05T11:11:23;15.80;28.30
62154;DHT22;48140;45.486;9.226;2023-04-05T11:13:52;16.30;28.50
62154;DHT22;48140;45.486;9.226;2023-04-05T11:16:19;16.30;28.00
62154;DHT22;48140;45.486;9.226;2023-04-05T11:18:47;15.40;28.30
62154;DHT22;48140;45.486;9.226;2023-04-05T11:21:21;15.50;29.30
62154;DHT22;48140;45.486;9.226;2023-04-05T11:24:05;16.20;28.30
62154;DHT22;48140;45.486;9.226;2023-04-05T11:29:14;15.20;29.50
62154;DHT22;48140;45.486;9.226;2023-04-05T11:32:05;15.50;29.20
62154;DHT22;48140;45.486;9.226;2023-04-05T11:34:36;16.00;28.60
62154;DHT22;48140;45.486;9.226;2023-04-05T11:37:02;15.50;28.40
62154;DHT22;48140;45.486;9.226;2023-04-05T11:39:28;15.50;28.80
62154;DHT22;48140;45.486;9.226;2023-04-05T11:42:02;15.20;29.30
62154;DHT22;48140;45.486;9.226;2023-04-05T11:44:48;15.20;29.90
62154;DHT22;48140;45.486;9.226;2023-04-05T11:47:17;16.20;28.80
62154;DHT22;48140;45.486;9.226;2023-04-05T11:49:49;16.70;27.80
62154;DHT22;48140;45.486;9.226;2023-04-05T11:52:17;17.10;27.30
62154;DHT22;48140;45.486;9.226;2023-04-05T11:54:44;17.10;26.90
62154;DHT22;48140;45.486;9.226;2023-04-05T11:57:19;17.50;26.50
62154;DHT22;48140;45.486;9.226;2023-04-05T11:59:45;17.80;26.50
62154;DHT22;48140;45.486;9.226;2023-04-05T12:02:11;17.90;26.20
62154;DHT22;48140;45.486;9.226;2023-04-05T12:04:37;18.00;25.90
62154;DHT22;48140;45.486;9.226;2023-04-05T12:07:15;18.10;25.50
62154;DHT22;48140;45.486;9.226;2023-04-05T12:10:07;16.30;26.90
62154;DHT22;48140;45.486;9.226;2023-04-05T12:12:34;15.10;29.90
62154;DHT22;48140;45.486;9.226;2023-04-05T12:15:02;15.80;28.70
62154;DHT22;48140;45.486;9.226;2023-04-05T12:17:41;16.50;28.00
62154;DHT22;48140;45.486;9.226;2023-04-05T12:20:08;17.50;27.50
62154;DHT22;48140;45.486;9.226;2023-04-05T12:22:35;17.90;26.30
62154;DHT22;48140;45.486;9.226;2023-04-05T12:25:02;18.40;26.00
62154;DHT22;48140;45.486;9.226;2023-04-05T12:27:27;18.40;25.70
62154;DHT22;48140;45.486;9.226;2023-04-05T12:32:43;18.60;25.20
62154;DHT22;48140;45.486;9.226;2023-04-05T12:35:16;18.00;25.80
62154;DHT22;48140;45.486;9.226;2023-04-05T12:37:42;17.90;26.50
62154;DHT22;48140;45.486;9.226;2023-04-05T12:40:08;18.30;25.80
62154;DHT22;48140;45.486;9.226;2023-04-05T12:42:37;17.70;25.80
62154;DHT22;48140;45.486;9.226;2023-04-05T12:45:11;16.30;27.10
62154;DHT22;48140;45.486;9.226;2023-04-05T12:47:56;16.30;27.50
62154;DHT22;48140;45.486;9.226;2023-04-05T12:50:42;16.30;27.80
62154;DHT22;48140;45.486;9.226;2023-04-05T12:53:17;17.40;26.70
62154;DHT22;48140;45.486;9.226;2023-04-05T12:58:15;18.40;25.40
62154;DHT22;48140;45.486;9.226;2023-04-05T13:00:42;18.70;25.00
62154;DHT22;48140;45.486;9.226;2023-04-05T13:03:14;18.90;25.70
62154;DHT22;48140;45.486;9.226;2023-04-05T13:05:41;19.20;24.90
62154;DHT22;48140;45.486;9.226;2023-04-05T13:08:06;19.10;24.80
62154;DHT22;48140;45.486;9.226;2023-04-05T13:10:32;18.20;25.70
62154;DHT22;48140;45.486;9.226;2023-04-05T13:12:58;18.40;25.90
62154;DHT22;48140;45.486;9.226;2023-04-05T13:15:23;18.60;25.90
62154;DHT22;48140;45.486;9.226;2023-04-05T13:17:49;18.50;25.40
62154;DHT22;48140;45.486;9.226;2023-04-05T13:20:17;18.60;25.40
62154;DHT22;48140;45.486;9.226;2023-04-05T13:22:43;18.90;25.20
62154;DHT22;48140;45.486;9.226;2023-04-05T13:25:09;19.00;24.70
62154;DHT22;48140;45.486;9.226;2023-04-05T13:27:34;19.20;24.80
62154;DHT22;48140;45.486;9.226;2023-04-05T13:30:00;19.10;24.80
62154;DHT22;48140;45.486;9.226;2023-04-05T13:32:26;18.70;25.20
62154;DHT22;48140;45.486;9.226;2023-04-05T13:34:51;18.90;25.20
62154;DHT22;48140;45.486;9.226;2023-04-05T13:37:17;18.50;25.20
62154;DHT22;48140;45.486;9.226;2023-04-05T13:39:43;18.90;25.50
62154;DHT22;48140;45.486;9.226;2023-04-05T13:42:08;19.30;24.70
62154;DHT22;48140;45.486;9.226;2023-04-05T13:44:35;19.50;24.80
62154;DHT22;48140;45.486;9.226;2023-04-05T13:47:00;19.70;24.80
62154;DHT22;48140;45.486;9.226;2023-04-05T13:49:26;19.20;24.20
62154;DHT22;48140;45.486;9.226;2023-04-05T13:51:52;18.90;25.30
62154;DHT22;48140;45.486;9.226;2023-04-05T13:54:18;19.50;24.90
62154;DHT22;48140;45.486;9.226;2023-04-05T13:56:45;19.70;24.40
62154;DHT22;48140;45.486;9.226;2023-04-05T13:59:10;19.80;24.20
62154;DHT22;48140;45.486;9.226;2023-04-05T14:01:44;20.00;23.80
62154;DHT22;48140;45.486;9.226;2023-04-05T14:04:10;20.00;23.80
62154;DHT22;48140;45.486;9.226;2023-04-05T14:06:36;19.30;23.50
62154;DHT22;48140;45.486;9.226;2023-04-05T14:09:02;19.10;24.70
62154;DHT22;48140;45.486;9.226;2023-04-05T14:11:28;18.60;24.90
62154;DHT22;48140;45.486;9.226;2023-04-05T14:13:53;19.10;25.10
62154;DHT22;48140;45.486;9.226;2023-04-05T14:16:19;19.60;24.50
62154;DHT22;48140;45.486;9.226;2023-04-05T14:18:45;19.80;24.20
62154;DHT22;48140;45.486;9.226;2023-04-05T14:21:11;20.30;23.20
62154;DHT22;48140;45.486;9.226;2023-04-05T14:23:37;20.50;23.00
62154;DHT22;48140;45.486;9.226;2023-04-05T14:26:03;20.10;23.40
62154;DHT22;48140;45.486;9.226;2023-04-05T14:28:28;20.10;23.40
62154;DHT22;48140;45.486;9.226;2023-04-05T14:30:54;20.40;23.50
62154;DHT22;48140;45.486;9.226;2023-04-05T14:33:20;20.70;23.00
62154;DHT22;48140;45.486;9.226;2023-04-05T14:35:46;20.70;23.00
62154;DHT22;48140;45.486;9.226;2023-04-05T14:38:12;20.70;23.10
62154;DHT22;48140;45.486;9.226;2023-04-05T14:40:38;20.80;22.80
62154;DHT22;48140;45.486;9.226;2023-04-05T14:43:03;20.30;22.90
62154;DHT22;48140;45.486;9.226;2023-04-05T14:45:29;20.20;23.10
62154;DHT22;48140;45.486;9.226;2023-04-05T14:47:56;20.30;23.00
62154;DHT22;48140;45.486;9.226;2023-04-05T14:50:22;20.10;23.50
62154;DHT22;48140;45.486;9.226;2023-04-05T14:52:47;20.00;23.30
62154;DHT22;48140;45.486;9.226;2023-04-05T14:55:16;18.80;24.80
62154;DHT22;48140;45.486;9.226;2023-04-05T14:57:42;19.00;25.00
62154;DHT22;48140;45.486;9.226;2023-04-05T15:00:09;19.20;25.10
62154;DHT22;48140;45.486;9.226;2023-04-05T15:02:36;19.50;24.80
62154;DHT22;48140;45.486;9.226;2023-04-05T15:05:05;19.70;24.10
62154;DHT22;48140;45.486;9.226;2023-04-05T15:07:31;19.80;23.90
62154;DHT22;48140;45.486;9.226;2023-04-05T15:09:56;19.70;23.70
62154;DHT22;48140;45.486;9.226;2023-04-05T15:12:22;19.50;24.20
62154;DHT22;48140;45.486;9.226;2023-04-05T15:14:48;19.70;24.10
62154;DHT22;48140;45.486;9.226;2023-04-05T15:17:15;19.80;23.50
62154;DHT22;48140;45.486;9.226;2023-04-05T15:19:41;19.60;23.80
62154;DHT22;48140;45.486;9.226;2023-04-05T15:22:07;19.20;24.20
62154;DHT22;48140;45.486;9.226;2023-04-05T15:24:35;19.10;24.50
62154;DHT22;48140;45.486;9.226;2023-04-05T15:27:01;19.30;24.40
62154;DHT22;48140;45.486;9.226;2023-04-05T15:29:31;19.60;24.20
62154;DHT22;48140;45.486;9.226;2023-04-05T15:31:58;19.80;23.90
62154;DHT22;48140;45.486;9.226;2023-04-05T15:34:24;20.00;23.70
62154;DHT22;48140;45.486;9.226;2023-04-05T15:36:50;20.10;23.40
62154;DHT22;48140;45.486;9.226;2023-04-05T15:39:17;20.00;23.30
62154;DHT22;48140;45.486;9.226;2023-04-05T15:41:43;20.30;23.30
62154;DHT22;48140;45.486;9.226;2023-04-05T15:44:08;20.20;23.90
62154;DHT22;48140;45.486;9.226;2023-04-05T15:46:34;20.20;23.10
62154;DHT22;48140;45.486;9.226;2023-04-05T15:49:00;20.10;24.10
62154;DHT22;48140;45.486;9.226;2023-04-05T15:51:26;20.00;23.20
62154;DHT22;48140;45.486;9.226;2023-04-05T15:53:51;20.00;23.10
62154;DHT22;48140;45.486;9.226;2023-04-05T15:56:17;20.10;23.20
62154;DHT22;48140;45.486;9.226;2023-04-05T15:58:43;20.10;23.40
62154;DHT22;48140;45.486;9.226;2023-04-05T16:01:09;20.20;23.20
62154;DHT22;48140;45.486;9.226;2023-04-05T16:03:35;20.00;23.10
62154;DHT22;48140;45.486;9.226;2023-04-05T16:06:00;19.70;23.70
62154;DHT22;48140;45.486;9.226;2023-04-05T16:08:26;19.70;23.80